createdAt,value
2019-02-04T00:00:02.009Z,96.17
2019-02-04T00:02:09.842Z,96.20
2019-02-04T00:04:16.049Z,96.17
2019-02-04T00:06:22.091Z,96.17
2019-02-04T00:08:29.691Z,96.14
2019-02-04T00:10:35.859Z,96.15
2019-02-04T00:12:42.020Z,96.11
2019-02-04T00:14:48.087Z,96.14
2019-02-04T00:16:54.638Z,96.13
2019-02-04T00:19:00.881Z,96.13
2019-02-04T00:21:06.948Z,96.13
2019-02-04T00:23:13.006Z,96.13
2019-02-04T00:25:21.577Z,96.13
2019-02-04T00:27:26.760Z,96.14
2019-02-04T00:29:32.722Z,96.15
2019-02-04T00:31:38.790Z,96.16
2019-02-04T00:33:44.917Z,96.17
2019-02-04T00:35:50.871Z,96.17
2019-02-04T00:37:57.140Z,96.16
2019-02-04T00:40:03.490Z,96.17
2019-02-04T00:42:09.580Z,96.16
2019-02-04T00:44:15.622Z,96.15
2019-02-04T00:46:21.777Z,96.12
2019-02-04T00:48:29.476Z,96.12
2019-02-04T00:50:35.516Z,96.09
2019-02-04T00:52:42.006Z,96.09
2019-02-04T00:54:48.047Z,96.11
2019-02-04T00:56:54.076Z,96.13
2019-02-04T00:59:00.375Z,96.13
2019-02-04T01:01:06.308Z,96.16
2019-02-04T01:03:13.986Z,96.16
2019-02-04T01:05:21.114Z,96.17
2019-02-04T01:07:27.111Z,96.17
2019-02-04T01:09:33.298Z,96.16
2019-02-04T01:11:39.451Z,96.18
2019-02-04T01:13:45.376Z,96.20
2019-02-04T01:15:52.376Z,96.18
2019-02-04T01:17:58.523Z,96.19
2019-02-04T01:20:10.949Z,96.20
2019-02-04T01:22:17.476Z,96.20
2019-02-04T01:24:23.478Z,96.21
2019-02-04T01:26:29.516Z,96.22
2019-02-04T01:28:35.598Z,96.24
2019-02-04T01:30:41.735Z,96.25
2019-02-04T01:32:47.976Z,96.24
2019-02-04T01:34:54.042Z,96.25
2019-02-04T01:37:00.107Z,96.25
2019-02-04T01:39:09.523Z,96.26
2019-02-04T01:41:15.920Z,96.27
2019-02-04T01:43:22.054Z,96.27
2019-02-04T01:45:28.114Z,96.28
2019-02-04T01:47:34.165Z,96.28
2019-02-04T01:49:40.106Z,96.29
2019-02-04T01:51:46.169Z,96.26
2019-02-04T01:53:52.229Z,96.27
2019-02-04T01:55:58.269Z,96.26
2019-02-04T01:58:04.239Z,96.27
2019-02-04T02:00:18.788Z,96.26
2019-02-04T02:02:24.849Z,96.26
2019-02-04T02:04:30.799Z,96.27
2019-02-04T02:06:36.840Z,96.27
2019-02-04T02:08:42.896Z,96.27
2019-02-04T02:10:48.852Z,96.26
2019-02-04T02:12:55.216Z,96.27
2019-02-04T02:15:01.268Z,96.25
2019-02-04T02:17:07.540Z,96.25
2019-02-04T02:19:13.608Z,96.26
2019-02-04T02:21:19.858Z,96.26
2019-02-04T02:23:25.999Z,96.28
2019-02-04T02:25:31.975Z,96.26
2019-02-04T02:27:39.234Z,96.28
2019-02-04T02:29:45.195Z,96.29
2019-02-04T02:31:51.655Z,96.28
2019-02-04T02:33:57.606Z,96.29
2019-02-04T02:36:03.559Z,96.29
2019-02-04T02:38:09.635Z,96.28
2019-02-04T02:40:28.484Z,96.30
2019-02-04T02:42:34.522Z,96.29
2019-02-04T02:44:40.477Z,96.31
2019-02-04T02:46:46.449Z,96.32
2019-02-04T02:48:52.402Z,96.31
2019-02-04T02:50:58.552Z,96.32
2019-02-04T02:53:04.504Z,96.32
2019-02-04T02:55:14.845Z,96.31
2019-02-04T02:57:20.801Z,96.31
2019-02-04T02:59:26.860Z,96.33
2019-02-04T03:01:32.922Z,96.32
2019-02-04T03:03:38.863Z,96.33
2019-02-04T03:05:44.833Z,96.30
2019-02-04T03:07:51.288Z,96.33
2019-02-04T03:09:57.339Z,96.32
2019-02-04T03:12:03.409Z,96.33
2019-02-04T03:14:10.072Z,96.34
2019-02-04T03:16:15.996Z,96.33
2019-02-04T03:18:21.983Z,96.31
2019-02-04T03:20:28.335Z,96.27
2019-02-04T03:22:34.708Z,96.29
2019-02-04T03:24:41.995Z,96.26
2019-02-04T03:26:47.907Z,96.27
2019-02-04T03:28:54.093Z,96.24
2019-02-04T03:31:00.475Z,96.26
2019-02-04T03:33:06.632Z,96.25
2019-02-04T03:35:16.841Z,96.22
2019-02-04T03:37:22.834Z,96.20
2019-02-04T03:39:29.084Z,96.17
2019-02-04T03:41:35.017Z,96.15
2019-02-04T03:43:40.998Z,96.13
2019-02-04T03:45:47.561Z,96.10
2019-02-04T03:48:04.339Z,96.10
2019-02-04T03:50:01.296Z,96.09
2019-02-04T03:52:08.379Z,96.09
2019-02-04T03:54:14.459Z,96.07
2019-02-04T03:56:20.709Z,96.07
2019-02-04T03:58:26.659Z,96.07
2019-02-04T04:00:35.991Z,96.05
2019-02-04T04:02:42.161Z,96.07
2019-02-04T04:04:48.193Z,96.06
2019-02-04T04:06:54.462Z,96.03
2019-02-04T04:09:00.413Z,96.00
2019-02-04T04:11:06.455Z,95.99
2019-02-04T04:13:12.417Z,96.00
2019-02-04T04:15:18.774Z,95.98
2019-02-04T04:17:24.856Z,95.94
2019-02-04T04:19:30.902Z,95.91
2019-02-04T04:21:37.166Z,95.90
2019-02-04T04:23:44.794Z,95.83
2019-02-04T04:25:50.794Z,95.80
2019-02-04T04:27:57.066Z,95.74
2019-02-04T04:30:03.017Z,95.66
2019-02-04T04:32:09.084Z,95.62
2019-02-04T04:34:19.666Z,95.57
2019-02-04T04:36:25.691Z,95.58
2019-02-04T04:38:31.752Z,95.54
2019-02-04T04:40:37.999Z,95.52
2019-02-04T04:42:44.482Z,95.50
2019-02-04T04:44:51.045Z,95.46
2019-02-04T04:46:57.306Z,95.47
2019-02-04T04:49:03.346Z,95.47
2019-02-04T04:51:11.554Z,95.48
2019-02-04T04:53:17.615Z,95.48
2019-02-04T04:55:27.588Z,95.43
2019-02-04T04:57:33.605Z,95.40
2019-02-04T04:59:39.565Z,95.41
2019-02-04T05:01:45.512Z,95.39
2019-02-04T05:03:51.595Z,95.38
2019-02-04T05:05:57.732Z,95.34
2019-02-04T05:08:04.314Z,95.31
2019-02-04T05:10:17.588Z,95.20
2019-02-04T05:12:23.599Z,95.18
2019-02-04T05:14:29.835Z,95.23
2019-02-04T05:16:35.786Z,95.29
2019-02-04T05:18:41.847Z,95.24
2019-02-04T05:20:47.904Z,95.21
2019-02-04T05:22:53.844Z,95.20
2019-02-04T05:25:00.023Z,95.13
2019-02-04T05:27:06.371Z,95.15
2019-02-04T05:29:12.961Z,95.15
2019-02-04T05:31:18.891Z,95.18
2019-02-04T05:33:24.955Z,95.19
2019-02-04T05:35:31.412Z,95.21
2019-02-04T05:37:37.588Z,95.19
2019-02-04T05:39:43.725Z,95.09
2019-02-04T05:41:49.787Z,95.05
2019-02-04T05:43:57.699Z,94.90
2019-02-04T05:46:08.900Z,94.85
2019-02-04T05:48:14.908Z,94.75
2019-02-04T05:50:21.690Z,94.61
2019-02-04T05:52:27.639Z,94.42
2019-02-04T05:54:34.213Z,94.43
2019-02-04T05:56:40.364Z,94.49
2019-02-04T05:58:46.325Z,94.30
2019-02-04T06:00:52.344Z,94.04
2019-02-04T06:02:58.304Z,94.04
2019-02-04T06:05:05.875Z,94.18
2019-02-04T06:07:12.145Z,94.34
2019-02-04T06:09:18.124Z,94.13
2019-02-04T06:11:24.373Z,94.11
2019-02-04T06:13:30.328Z,94.26
2019-02-04T06:15:36.698Z,94.35
2019-02-04T06:17:42.755Z,94.48
2019-02-04T06:19:48.800Z,94.60
2019-02-04T06:22:00.731Z,94.48
2019-02-04T06:24:10.546Z,94.44
2019-02-04T06:26:17.756Z,94.34
2019-02-04T06:28:30.687Z,94.23
2019-02-04T06:30:43.877Z,94.32
2019-02-04T06:32:54.510Z,94.10
2019-02-04T06:35:01.714Z,94.13
2019-02-04T06:37:07.656Z,94.26
2019-02-04T06:39:13.629Z,94.25
2019-02-04T06:41:19.542Z,94.27
2019-02-04T06:43:27.134Z,94.34
2019-02-04T06:45:34.654Z,94.35
2019-02-04T06:47:41.435Z,94.54
2019-02-04T06:49:47.374Z,94.46
2019-02-04T06:51:55.005Z,94.38
2019-02-04T06:54:01.317Z,93.98
2019-02-04T06:56:07.265Z,94.03
2019-02-04T06:58:13.230Z,93.87
2019-02-04T07:00:20.305Z,93.94
2019-02-04T07:02:26.488Z,93.94
2019-02-04T07:04:33.137Z,93.66
2019-02-04T07:06:39.085Z,93.54
2019-02-04T07:08:45.164Z,93.61
2019-02-04T07:10:52.734Z,93.56
2019-02-04T07:12:59.091Z,93.48
2019-02-04T07:15:05.459Z,93.44
2019-02-04T07:17:11.395Z,93.46
2019-02-04T07:19:24.235Z,93.58
2019-02-04T07:21:26.094Z,93.63
2019-02-04T07:23:32.046Z,93.56
2019-02-04T07:25:38.395Z,93.26
2019-02-04T07:27:44.375Z,93.41
2019-02-04T07:29:50.535Z,93.27
2019-02-04T07:31:56.674Z,93.31
2019-02-04T07:34:03.246Z,93.05
2019-02-04T07:36:09.296Z,93.06
2019-02-04T07:38:17.094Z,93.25
2019-02-04T07:40:34.465Z,93.46
2019-02-04T07:42:40.482Z,93.61
2019-02-04T07:44:46.414Z,93.41
2019-02-04T07:46:52.466Z,92.92
2019-02-04T07:48:58.875Z,92.58
2019-02-04T07:51:04.959Z,92.60
2019-02-04T07:53:11.152Z,92.98
2019-02-04T07:55:17.125Z,92.97
2019-02-04T07:57:24.714Z,93.09
2019-02-04T07:59:30.752Z,93.20
2019-02-04T08:01:36.722Z,93.04
2019-02-04T08:03:42.744Z,92.95
2019-02-04T08:05:50.032Z,92.92
2019-02-04T08:07:56.085Z,93.30
2019-02-04T08:10:03.165Z,93.63
2019-02-04T08:12:09.131Z,93.67
2019-02-04T08:14:15.284Z,93.26
2019-02-04T08:16:21.355Z,93.20
2019-02-04T08:18:27.311Z,92.77
2019-02-04T08:20:33.279Z,92.06
2019-02-04T08:22:39.934Z,91.76
2019-02-04T08:24:46.070Z,92.32
2019-02-04T08:26:52.227Z,91.99
2019-02-04T08:28:58.195Z,91.88
2019-02-04T08:31:04.154Z,91.85
2019-02-04T08:33:10.195Z,92.07
2019-02-04T08:35:16.481Z,91.35
2019-02-04T08:37:22.913Z,90.39
2019-02-04T08:39:28.995Z,90.81
2019-02-04T08:41:35.035Z,90.36
2019-02-04T08:43:41.273Z,90.37
2019-02-04T08:45:48.891Z,91.41
2019-02-04T08:47:56.261Z,91.03
2019-02-04T08:50:02.931Z,90.50
2019-02-04T08:52:08.899Z,90.93
2019-02-04T08:54:15.890Z,91.15
2019-02-04T08:56:22.217Z,90.31
2019-02-04T08:58:28.476Z,90.03
2019-02-04T09:00:34.534Z,90.59
2019-02-04T09:02:40.612Z,91.18
2019-02-04T09:04:46.554Z,90.58
2019-02-04T09:06:52.525Z,88.86
2019-02-04T09:08:58.665Z,90.11
2019-02-04T09:11:05.360Z,90.99
2019-02-04T09:13:11.405Z,90.11
2019-02-04T09:15:17.554Z,90.83
2019-02-04T09:17:23.696Z,91.18
2019-02-04T09:19:30.895Z,90.93
2019-02-04T09:21:36.862Z,90.87
2019-02-04T09:23:42.790Z,90.71
2019-02-04T09:25:48.745Z,88.71
2019-02-04T09:27:55.104Z,89.12
2019-02-04T09:30:01.085Z,89.61
2019-02-04T09:32:07.451Z,90.62
2019-02-04T09:34:14.299Z,90.59
2019-02-04T09:36:20.354Z,89.95
2019-02-04T09:38:27.040Z,89.54
2019-02-04T09:40:42.616Z,89.39
2019-02-04T09:42:48.684Z,88.45
2019-02-04T09:44:54.737Z,89.98
2019-02-04T09:47:01.314Z,90.56
2019-02-04T09:49:07.352Z,90.69
2019-02-04T09:51:13.519Z,90.65
2019-02-04T09:53:19.570Z,90.18
2019-02-04T09:55:30.234Z,90.51
2019-02-04T09:57:36.184Z,89.89
2019-02-04T09:59:42.532Z,89.67
2019-02-04T10:01:48.592Z,90.45
2019-02-04T10:03:55.585Z,90.02
2019-02-04T10:06:01.624Z,89.99
2019-02-04T10:08:08.500Z,89.07
2019-02-04T10:10:21.635Z,89.46
2019-02-04T10:12:29.004Z,89.65
2019-02-04T10:14:35.169Z,88.16
2019-02-04T10:16:41.127Z,87.98
2019-02-04T10:18:47.293Z,88.83
2019-02-04T10:20:53.707Z,87.45
2019-02-04T10:22:59.705Z,89.20
2019-02-04T10:25:09.323Z,89.09
2019-02-04T10:27:15.422Z,88.40
2019-02-04T10:29:21.574Z,87.71
2019-02-04T10:31:28.244Z,87.25
2019-02-04T10:33:34.382Z,86.89
2019-02-04T10:35:52.594Z,86.03
2019-02-04T10:37:58.777Z,85.42
2019-02-04T10:40:22.521Z,87.29
2019-02-04T10:42:28.610Z,86.64
2019-02-04T10:44:34.525Z,85.88
2019-02-04T10:46:42.256Z,86.33
2019-02-04T10:48:55.667Z,84.86
2019-02-04T10:51:06.798Z,86.16
2019-02-04T10:53:13.880Z,86.62
2019-02-04T10:55:20.045Z,88.09
2019-02-04T10:57:26.158Z,88.23
2019-02-04T10:59:32.108Z,87.44
2019-02-04T11:01:38.198Z,87.99
2019-02-04T11:03:45.539Z,86.96
2019-02-04T11:05:51.534Z,86.95
2019-02-04T11:08:00.244Z,87.26
2019-02-04T11:10:10.974Z,87.80
2019-02-04T11:12:18.163Z,88.35
2019-02-04T11:14:24.307Z,86.92
2019-02-04T11:16:31.294Z,85.05
2019-02-04T11:18:37.250Z,84.85
2019-02-04T11:20:43.549Z,88.45
2019-02-04T11:22:49.651Z,87.34
2019-02-04T11:24:55.821Z,85.73
2019-02-04T11:27:03.695Z,86.75
2019-02-04T11:29:09.977Z,87.95
2019-02-04T11:31:16.741Z,86.64
2019-02-04T11:33:23.611Z,87.26
2019-02-04T11:35:30.118Z,87.14
2019-02-04T11:37:36.413Z,86.65
2019-02-04T11:39:44.039Z,88.16
2019-02-04T11:41:50.313Z,87.32
2019-02-04T11:43:57.323Z,87.34
2019-02-04T11:46:03.575Z,86.74
2019-02-04T11:48:13.330Z,87.23
2019-02-04T11:50:19.235Z,84.36
2019-02-04T11:52:25.392Z,83.27
2019-02-04T11:54:31.645Z,80.19
2019-02-04T11:56:37.935Z,77.04
2019-02-04T11:58:43.861Z,75.54
2019-02-04T12:00:49.821Z,76.75
2019-02-04T12:02:57.615Z,74.37
2019-02-04T12:05:03.543Z,73.01
2019-02-04T12:07:09.735Z,70.58
2019-02-04T12:09:15.892Z,70.11
2019-02-04T12:11:21.935Z,69.92
2019-02-04T12:13:28.013Z,70.75
2019-02-04T12:15:33.948Z,70.83
2019-02-04T12:17:40.111Z,70.66
2019-02-04T12:19:46.034Z,69.27
2019-02-04T12:21:52.324Z,73.80
2019-02-04T12:23:59.916Z,69.42
2019-02-04T12:26:07.507Z,72.10
2019-02-04T12:28:13.675Z,67.33
2019-02-04T12:30:27.092Z,66.63
2019-02-04T12:32:35.897Z,69.01
2019-02-04T12:34:41.866Z,70.85
2019-02-04T12:36:48.148Z,74.27
2019-02-04T12:38:54.384Z,73.66
2019-02-04T12:41:00.320Z,73.37
2019-02-04T12:43:06.305Z,73.82
2019-02-04T12:45:26.894Z,78.86
2019-02-04T12:47:33.045Z,75.10
2019-02-04T12:49:39.115Z,75.45
2019-02-04T12:51:45.347Z,74.44
2019-02-04T12:53:52.410Z,75.55
2019-02-04T12:55:58.599Z,74.20
2019-02-04T12:58:05.476Z,75.15
2019-02-04T13:00:21.577Z,75.36
2019-02-04T13:02:27.633Z,75.68
2019-02-04T13:04:33.657Z,76.39
2019-02-04T13:06:39.736Z,77.24
2019-02-04T13:08:45.655Z,77.12
2019-02-04T13:10:51.766Z,76.97
2019-02-04T13:12:57.678Z,76.41
2019-02-04T13:15:03.736Z,77.31
2019-02-04T13:17:09.714Z,77.75
2019-02-04T13:19:15.759Z,78.40
2019-02-04T13:21:22.121Z,78.89
2019-02-04T13:23:28.169Z,77.56
2019-02-04T13:25:34.125Z,78.57
2019-02-04T13:27:41.439Z,78.87
2019-02-04T13:29:47.484Z,79.03
2019-02-04T13:31:53.728Z,79.43
2019-02-04T13:33:59.685Z,79.27
2019-02-04T13:36:06.159Z,79.67
2019-02-04T13:38:12.288Z,79.30
2019-02-04T13:40:30.010Z,80.07
2019-02-04T13:42:36.284Z,79.88
2019-02-04T13:44:42.354Z,79.74
2019-02-04T13:46:49.327Z,79.68
2019-02-04T13:48:55.595Z,79.68
2019-02-04T13:51:01.957Z,79.66
2019-02-04T13:53:08.326Z,77.77
2019-02-04T13:55:18.902Z,77.74
2019-02-04T13:57:24.936Z,76.33
2019-02-04T13:59:32.745Z,77.73
2019-02-04T14:01:39.110Z,76.59
2019-02-04T14:03:48.324Z,76.51
2019-02-04T14:05:54.595Z,76.32
2019-02-04T14:08:01.142Z,76.82
2019-02-04T14:10:20.842Z,76.88
2019-02-04T14:12:27.291Z,77.43
2019-02-04T14:14:35.282Z,77.22
2019-02-04T14:16:41.356Z,78.17
2019-02-04T14:18:47.830Z,78.31
2019-02-04T14:20:53.855Z,78.12
2019-02-04T14:22:59.924Z,78.02
2019-02-04T14:25:08.395Z,78.25
2019-02-04T14:27:14.413Z,78.79
2019-02-04T14:29:20.458Z,79.67
2019-02-04T14:31:26.717Z,79.52
2019-02-04T14:33:34.668Z,80.11
2019-02-04T14:35:40.859Z,80.44
2019-02-04T14:37:46.926Z,81.14
2019-02-04T14:39:52.968Z,81.89
2019-02-04T14:41:59.139Z,82.15
2019-02-04T14:44:10.529Z,81.90
2019-02-04T14:46:29.886Z,82.04
2019-02-04T14:49:12.498Z,82.56
2019-02-04T14:51:23.371Z,81.37
2019-02-04T14:53:52.249Z,81.86
2019-02-04T14:56:12.230Z,82.26
2019-02-04T14:58:41.009Z,81.92
2019-02-04T15:01:30.716Z,81.87
2019-02-04T15:03:53.035Z,82.21
2019-02-04T15:06:28.587Z,81.83
2019-02-04T15:09:04.801Z,82.15
2019-02-04T15:11:27.190Z,81.72
2019-02-04T15:13:59.247Z,82.20
2019-02-04T15:16:30.039Z,82.47
2019-02-04T15:19:07.679Z,83.48
2019-02-04T15:21:50.906Z,83.35
2019-02-04T15:24:14.879Z,83.48
2019-02-04T15:26:43.977Z,83.93
2019-02-04T15:28:59.943Z,83.76
2019-02-04T15:31:52.500Z,83.42
2019-02-04T15:34:09.901Z,83.82
2019-02-04T15:36:29.611Z,84.47
2019-02-04T15:38:41.788Z,84.32
2019-02-04T15:41:10.526Z,83.54
2019-02-04T15:43:27.754Z,84.16
2019-02-04T15:45:44.820Z,83.49
2019-02-04T15:47:56.098Z,84.27
2019-02-04T15:50:37.149Z,84.26
2019-02-04T15:52:45.463Z,84.28
2019-02-04T15:54:51.960Z,83.70
2019-02-04T15:56:59.609Z,83.93
2019-02-04T15:59:06.101Z,83.80
2019-02-04T16:01:12.696Z,84.15
2019-02-04T16:03:20.712Z,83.98
2019-02-04T16:05:27.281Z,83.50
2019-02-04T16:07:33.938Z,83.12
2019-02-04T16:09:42.118Z,83.35
2019-02-04T16:11:48.818Z,83.10
2019-02-04T16:13:55.391Z,82.81
2019-02-04T16:16:01.865Z,82.42
2019-02-04T16:18:09.000Z,82.39
2019-02-04T16:20:24.112Z,82.77
2019-02-04T16:22:30.467Z,83.52
2019-02-04T16:24:37.049Z,83.51
2019-02-04T16:26:44.671Z,83.95
2019-02-04T16:28:51.240Z,84.01
2019-02-04T16:30:57.911Z,83.57
2019-02-04T16:33:04.709Z,83.69
2019-02-04T16:35:18.141Z,83.98
2019-02-04T16:37:25.078Z,84.54
2019-02-04T16:39:31.571Z,84.06
2019-02-04T16:41:38.072Z,83.73
2019-02-04T16:43:44.563Z,83.46
2019-02-04T16:45:50.942Z,83.53
2019-02-04T16:47:57.853Z,84.26
2019-02-04T16:50:05.792Z,83.04
2019-02-04T16:52:12.730Z,83.61
2019-02-04T16:54:19.790Z,84.06
2019-02-04T16:56:26.103Z,84.16
2019-02-04T16:58:32.790Z,83.85
2019-02-04T17:00:39.464Z,83.59
2019-02-04T17:02:47.631Z,84.01
2019-02-04T17:04:54.354Z,84.04
2019-02-04T17:07:01.612Z,83.60
2019-02-04T17:09:09.483Z,83.35
2019-02-04T17:11:16.056Z,84.01
2019-02-04T17:13:22.641Z,83.85
2019-02-04T17:15:29.010Z,84.18
2019-02-04T17:17:35.702Z,84.29
2019-02-04T17:19:43.728Z,84.75
2019-02-04T17:21:50.505Z,84.46
2019-02-04T17:23:57.498Z,84.59
2019-02-04T17:26:03.972Z,84.69
2019-02-04T17:28:10.398Z,84.21
2019-02-04T17:30:20.328Z,84.20
2019-02-04T17:32:26.942Z,84.90
2019-02-04T17:34:34.261Z,85.00
2019-02-04T17:36:40.833Z,84.80
2019-02-04T17:38:47.393Z,85.07
2019-02-04T17:40:53.900Z,85.40
2019-02-04T17:43:00.473Z,85.21
2019-02-04T17:45:12.358Z,85.21
2019-02-04T17:47:19.060Z,84.75
2019-02-04T17:49:25.660Z,84.14
2019-02-04T17:51:32.354Z,84.27
2019-02-04T17:53:39.043Z,84.49
2019-02-04T17:55:45.350Z,84.81
2019-02-04T17:57:51.949Z,84.69
2019-02-04T17:59:58.487Z,84.12
2019-02-04T18:02:05.722Z,83.47
2019-02-04T18:04:13.895Z,84.04
2019-02-04T18:06:20.627Z,84.15
2019-02-04T18:08:27.225Z,83.98
2019-02-04T18:10:33.836Z,83.42
2019-02-04T18:12:40.445Z,83.50
2019-02-04T18:14:47.985Z,83.82
2019-02-04T18:16:56.173Z,83.13
2019-02-04T18:19:04.207Z,83.74
2019-02-04T18:21:11.224Z,83.93
2019-02-04T18:23:17.706Z,84.37
2019-02-04T18:25:24.665Z,84.32
2019-02-04T18:27:31.323Z,84.00
2019-02-04T18:29:37.958Z,84.34
2019-02-04T18:31:44.730Z,84.44
2019-02-04T18:33:51.381Z,84.68
2019-02-04T18:35:58.105Z,85.22
2019-02-04T18:38:07.012Z,84.79
2019-02-04T18:40:22.865Z,84.54
2019-02-04T18:42:29.992Z,84.45
2019-02-04T18:44:36.562Z,84.69
2019-02-04T18:46:43.062Z,84.74
2019-02-04T18:48:49.671Z,84.75
2019-02-04T18:50:56.264Z,84.92
2019-02-04T18:53:03.002Z,84.74
2019-02-04T18:55:20.627Z,84.83
2019-02-04T18:57:28.466Z,84.78
2019-02-04T18:59:34.935Z,84.74
2019-02-04T19:01:42.113Z,84.47
2019-02-04T19:03:51.674Z,84.51
2019-02-04T19:05:58.823Z,85.15
2019-02-04T19:08:05.791Z,84.80
2019-02-04T19:10:21.418Z,85.27
2019-02-04T19:12:28.170Z,85.17
2019-02-04T19:14:34.666Z,85.29
2019-02-04T19:16:41.218Z,85.26
2019-02-04T19:18:48.245Z,85.01
2019-02-04T19:20:56.551Z,85.12
2019-02-04T19:23:03.304Z,85.77
2019-02-04T19:25:13.215Z,85.46
2019-02-04T19:27:20.095Z,85.03
2019-02-04T19:29:27.285Z,84.67
2019-02-04T19:31:34.995Z,84.86
2019-02-04T19:33:42.291Z,84.88
2019-02-04T19:35:51.912Z,85.75
2019-02-04T19:37:59.551Z,85.02
2019-02-04T19:40:10.705Z,84.75
2019-02-04T19:42:17.896Z,85.22
2019-02-04T19:44:24.722Z,85.32
2019-02-04T19:46:48.062Z,85.60
2019-02-04T19:48:56.759Z,85.57
2019-02-04T19:51:03.619Z,85.34
2019-02-04T19:53:12.072Z,84.93
2019-02-04T19:55:18.646Z,85.21
2019-02-04T19:57:25.844Z,85.59
2019-02-04T19:59:32.463Z,85.30
2019-02-04T20:01:38.941Z,85.27
2019-02-04T20:03:45.540Z,84.93
2019-02-04T20:05:52.309Z,84.79
2019-02-04T20:08:05.655Z,84.80
2019-02-04T20:10:18.880Z,84.55
2019-02-04T20:12:25.422Z,84.24
2019-02-04T20:14:31.956Z,84.25
2019-02-04T20:16:39.379Z,84.20
2019-02-04T20:18:46.910Z,84.38
2019-02-04T20:20:55.362Z,84.47
2019-02-04T20:23:03.202Z,84.85
2019-02-04T20:25:14.072Z,84.48
2019-02-04T20:27:20.253Z,84.77
2019-02-04T20:29:26.939Z,85.10
2019-02-04T20:31:35.070Z,85.07
2019-02-04T20:33:44.740Z,85.19
2019-02-04T20:35:53.020Z,85.08
2019-02-04T20:37:59.681Z,85.11
2019-02-04T20:40:17.264Z,85.10
2019-02-04T20:42:24.062Z,85.32
2019-02-04T20:44:30.998Z,85.52
2019-02-04T20:46:37.626Z,85.55
2019-02-04T20:48:44.419Z,85.95
2019-02-04T20:50:51.472Z,85.43
2019-02-04T20:52:57.855Z,85.22
2019-02-04T20:55:06.363Z,85.52
2019-02-04T20:57:13.083Z,85.58
2019-02-04T20:59:19.474Z,85.61
2019-02-04T21:01:26.261Z,85.36
2019-02-04T21:03:33.322Z,85.96
2019-02-04T21:05:42.189Z,85.87
2019-02-04T21:07:50.299Z,86.01
2019-02-04T21:09:56.683Z,86.50
2019-02-04T21:12:03.082Z,85.92
2019-02-04T21:14:10.001Z,85.82
2019-02-04T21:16:16.828Z,85.63
2019-02-04T21:18:23.313Z,85.74
2019-02-04T21:20:31.480Z,85.83
2019-02-04T21:22:37.872Z,85.46
2019-02-04T21:24:44.253Z,85.19
2019-02-04T21:26:50.842Z,85.21
2019-02-04T21:28:57.503Z,85.44
2019-02-04T21:31:03.893Z,85.28
2019-02-04T21:33:10.591Z,85.41
2019-02-04T21:35:24.750Z,85.09
2019-02-04T21:40:27.860Z,85.39
2019-02-04T21:42:34.337Z,85.50
2019-02-04T21:44:41.271Z,85.13
2019-02-04T21:46:49.058Z,85.19
2019-02-04T21:48:56.740Z,84.42
2019-02-04T21:51:05.700Z,84.81
2019-02-04T21:53:14.142Z,85.31
2019-02-04T21:55:22.494Z,84.75
2019-02-04T21:57:30.123Z,84.20
2019-02-04T21:59:36.832Z,83.63
2019-02-04T22:01:43.362Z,83.94
2019-02-04T22:03:49.631Z,83.61
2019-02-04T22:05:55.910Z,83.73
2019-02-04T22:08:02.513Z,83.99
2019-02-04T22:10:25.854Z,84.00
2019-02-04T22:12:32.243Z,83.40
2019-02-04T22:17:36.949Z,84.14
2019-02-04T22:19:43.570Z,84.62
2019-02-04T22:21:50.003Z,84.34
2019-02-04T22:23:56.258Z,84.37
2019-02-04T22:26:02.631Z,83.62
2019-02-04T22:28:08.871Z,84.38
2019-02-04T22:30:31.553Z,84.41
2019-02-04T22:32:39.743Z,84.67
2019-02-04T22:34:46.199Z,84.85
2019-02-04T22:36:52.371Z,84.43
2019-02-04T22:38:59.776Z,84.44
2019-02-04T22:41:07.527Z,84.67
2019-02-04T22:43:13.607Z,84.47
2019-02-04T22:45:20.141Z,84.68
2019-02-04T22:47:27.333Z,85.02
2019-02-04T22:49:33.393Z,85.01
2019-02-04T22:51:39.433Z,84.84
2019-02-04T22:53:45.912Z,85.07
2019-02-04T22:55:52.071Z,85.19
2019-02-04T22:57:58.119Z,84.96
2019-02-04T23:00:07.691Z,85.05
2019-02-04T23:02:14.042Z,84.90
2019-02-04T23:04:20.106Z,84.67
2019-02-04T23:06:26.326Z,85.17
2019-02-04T23:08:32.422Z,85.23
2019-02-04T23:10:39.723Z,85.24
2019-02-04T23:12:46.077Z,84.87
2019-02-04T23:14:52.113Z,85.06
2019-02-04T23:16:58.148Z,85.32
2019-02-04T23:19:04.192Z,84.87
2019-02-04T23:21:11.212Z,84.76
2019-02-04T23:23:18.140Z,84.27
2019-02-04T23:25:24.210Z,84.58
2019-02-04T23:27:30.284Z,84.56
2019-02-04T23:29:36.443Z,84.51
2019-02-04T23:31:43.406Z,84.92
2019-02-04T23:33:50.181Z,85.03
2019-02-04T23:35:56.242Z,85.38
2019-02-04T23:38:03.755Z,85.28
2019-02-04T23:40:12.634Z,85.76
2019-02-04T23:42:19.317Z,85.37
2019-02-04T23:44:26.075Z,84.92
2019-02-04T23:46:33.034Z,84.93
2019-02-04T23:48:40.989Z,85.00
2019-02-04T23:50:47.811Z,85.73
2019-02-04T23:52:54.693Z,84.94
2019-02-04T23:55:02.984Z,84.99
2019-02-04T23:57:09.954Z,85.96
2019-02-04T23:59:16.881Z,85.14
